Bridgeport, CT (06610)

7:18 AM EST on February 06, 2016 (GMT -0500)
Northern Part Of Town | | Change Station
CLOSE
Current Station
Personal Weather Station
Location: Stratford, CT
Elevation: 100 ft
Nearby Weather Stations
Active Advisory: Special Statement Active Notice: Record Report, Local Storm Report

Elev 100 ft 41.21 °N, 73.15 °W | Updated 15 seconds ago

Partly Cloudy
Partly Cloudy
14.4 °F
Feels Like 14 °F
N
0.0
Wind Variable Wind from North
Gusts 0.0 mph

Today
High -- | Low -- °F
--% Chance of Precip.
Yesterday
High -- | Low -- °F
Precip. -- in
Pressure 30.40 in
Visibility 10.0 miles
Clouds Clear
Windchill 14 °F
Dew Point 8 °F
Humidity 75%
Rainfall 0.00 in
Snow Depth Not available.
6:58 AM 5:15 PM
Waning Crescent, 6% visible
METAR KBDR 061152Z 00000KT 10SM CLR M07/M09 A3040 RMK AO2 SLP295 70052 T10671089 11028 21078 $
Pressure 30.40 in
Visibility 10.0 miles
Clouds Clear
Windchill 14 °F
Dew Point 8 °F
Humidity 75%
Rainfall 0.00 in
Snow Depth Not available.
6:58 AM 5:15 PM
Waning Crescent, 6% visible
METAR KBDR 061152Z 00000KT 10SM CLR M07/M09 A3040 RMK AO2 SLP295 70052 T10671089 11028 21078 $

10-Day Weather Forecast

Almanac

Astronomy

Feb. 06, 2016 Rise Set
Actual Time
Civil Twilight
Nautical Twilight
Astronomical Twilight
Moon
Length of Visible Light
Length of Day
Tomorrow will be .
, % of the Moon is Illuminated

Today's Extremes

State Highs State Lows

Community

WunderPhotos

Upload Photos

1,890,944 photos uploaded!

WunderBlog® & News

Nearby

Air Quality

  Air Quality AQ Index Pollutant
Not available.

Snow Depth

Station Depth Elevation

Earthquake Activity

City Distance Mag. Time & Date
Minimum magnitude displayed is 2.5.

Coastal Water Temperatures

Place Temperature

Stations

Nearby Weather Stations

Station Location Temp. Windchill Dew Point Humidity Wind Precip. Elev Updated Type
                   

Watches & Warnings

Special Statement
Issued: 5:05 AM EST Feb. 6, 2016 – National Weather Service

Icy spots are possible this morning... mainly on untreated surfaces
from yesterday's snowmelt. Please exercise extra caution if you
are driving or walking early this morning.



505 am EST Sat Feb 6 2016

Icy spots are possible this morning... mainly on untreated surfaces
from yesterday's snowmelt. Please exercise extra caution if you
are driving or walking early this morning.


505 am EST Sat Feb 6 2016

Icy spots are possible this morning... mainly on untreated surfaces
from yesterday's snowmelt. Please exercise extra caution if you
are driving or walking early this morning.



924 PM EST Fri Feb 5 2016

Standing water from melted snow will refreeze tonight. Icy spots
are anticipated... especially on untreated surfaces. Use extra
caution when out driving or walking tonight into Saturday morning.



924 PM EST Fri Feb 5 2016

Standing water from melted snow will refreeze tonight. Icy spots
are anticipated... especially on untreated surfaces. Use extra
caution when out driving or walking tonight into Saturday morning.